sensor_id;sensor_type;location;lat;lon;timestamp;pressure;altitude;pressure_sealevel;temperature;humidity
19208;BME280;9737;59.466;18.036;2023-04-20T00:00:47;95522.91;;;-1.27;28.16
19208;BME280;9737;59.466;18.036;2023-04-20T00:03:15;95518.03;;;-1.30;28.07
19208;BME280;9737;59.466;18.036;2023-04-20T00:05:47;95498.47;;;-1.34;28.14
19208;BME280;9737;59.466;18.036;2023-04-20T00:08:17;95489.84;;;-1.34;28.05
19208;BME280;9737;59.466;18.036;2023-04-20T00:10:45;95481.69;;;-1.39;28.22
19208;BME280;9737;59.466;18.036;2023-04-20T00:13:12;95469.94;;;-1.43;28.14
19208;BME280;9737;59.466;18.036;2023-04-20T00:15:40;95452.00;;;-1.46;28.11
19208;BME280;9737;59.466;18.036;2023-04-20T00:18:08;95453.63;;;-1.45;28.32
19208;BME280;9737;59.466;18.036;2023-04-20T00:20:36;95434.09;;;-1.49;28.18
19208;BME280;9737;59.466;18.036;2023-04-20T00:23:06;95419.09;;;-1.56;28.33
19208;BME280;9737;59.466;18.036;2023-04-20T00:25:35;95397.94;;;-1.61;28.25
19208;BME280;9737;59.466;18.036;2023-04-20T00:28:03;95404.78;;;-1.60;28.32
19208;BME280;9737;59.466;18.036;2023-04-20T00:30:31;95411.63;;;-1.59;28.12
19208;BME280;9737;59.466;18.036;2023-04-20T00:32:59;95401.34;;;-1.60;28.31
19208;BME280;9737;59.466;18.036;2023-04-20T00:35:28;95382.78;;;-1.65;28.23
19208;BME280;9737;59.466;18.036;2023-04-20T00:37:57;95366.69;;;-1.69;28.19
19208;BME280;9737;59.466;18.036;2023-04-20T00:40:27;95356.59;;;-1.72;28.26
19208;BME280;9737;59.466;18.036;2023-04-20T00:42:56;95373.53;;;-1.68;28.26
19208;BME280;9737;59.466;18.036;2023-04-20T00:45:24;95371.88;;;-1.69;28.13
19208;BME280;9737;59.466;18.036;2023-04-20T00:47:52;95360.97;;;-1.72;28.25
19208;BME280;9737;59.466;18.036;2023-04-20T00:50:20;95354.97;;;-1.73;28.26
19208;BME280;9737;59.466;18.036;2023-04-20T00:52:48;95359.34;;;-1.73;28.30
19208;BME280;9737;59.466;18.036;2023-04-20T00:55:17;95342.06;;;-1.74;28.32
19208;BME280;9737;59.466;18.036;2023-04-20T00:57:45;95346.47;;;-1.75;28.35
19208;BME280;9737;59.466;18.036;2023-04-20T01:00:15;95356.59;;;-1.72;28.55
19208;BME280;9737;59.466;18.036;2023-04-20T01:02:43;95349.88;;;-1.74;28.50
19208;BME280;9737;59.466;18.036;2023-04-20T01:05:11;95333.13;;;-1.80;28.46
19208;BME280;9737;59.466;18.036;2023-04-20T01:07:39;95316.19;;;-1.84;28.16
19208;BME280;9737;59.466;18.036;2023-04-20T01:10:07;95322.22;;;-1.83;28.73
19208;BME280;9737;59.466;18.036;2023-04-20T01:12:36;95348.09;;;-1.74;28.44
19208;BME280;9737;59.466;18.036;2023-04-20T01:15:05;95334.75;;;-1.79;28.61
19208;BME280;9737;59.466;18.036;2023-04-20T01:17:35;95317.00;;;-1.83;28.73
19208;BME280;9737;59.466;18.036;2023-04-20T01:20:07;95284.94;;;-1.92;28.72
19208;BME280;9737;59.466;18.036;2023-04-20T01:22:43;95269.00;;;-1.97;28.47
19208;BME280;9737;59.466;18.036;2023-04-20T01:25:11;95253.06;;;-2.02;28.54
19208;BME280;9737;59.466;18.036;2023-04-20T01:27:39;95242.78;;;-2.04;28.59
19208;BME280;9737;59.466;18.036;2023-04-20T01:30:08;95234.31;;;-2.06;28.60
19208;BME280;9737;59.466;18.036;2023-04-20T01:32:36;95224.25;;;-2.09;28.54
19208;BME280;9737;59.466;18.036;2023-04-20T01:35:05;95220.16;;;-2.11;28.80
19208;BME280;9737;59.466;18.036;2023-04-20T01:37:33;95206.19;;;-2.10;28.73
19208;BME280;9737;59.466;18.036;2023-04-20T01:40:03;95199.69;;;-2.14;29.01
19208;BME280;9737;59.466;18.036;2023-04-20T01:42:32;95179.50;;;-2.21;28.79
19208;BME280;9737;59.466;18.036;2023-04-20T01:45:00;95176.25;;;-2.23;28.91
19208;BME280;9737;59.466;18.036;2023-04-20T01:47:29;95155.78;;;-2.26;28.81
19208;BME280;9737;59.466;18.036;2023-04-20T01:49:57;95146.66;;;-2.30;28.98
19208;BME280;9737;59.466;18.036;2023-04-20T01:52:25;95134.78;;;-2.32;28.92
19208;BME280;9737;59.466;18.036;2023-04-20T01:54:53;95125.50;;;-2.35;28.74
19208;BME280;9737;59.466;18.036;2023-04-20T01:57:23;95113.81;;;-2.39;28.97
19208;BME280;9737;59.466;18.036;2023-04-20T01:59:51;95118.84;;;-2.37;28.89
19208;BME280;9737;59.466;18.036;2023-04-20T02:02:19;95130.72;;;-2.35;28.92
19208;BME280;9737;59.466;18.036;2023-04-20T02:04:47;95118.03;;;-2.38;28.81
19208;BME280;9737;59.466;18.036;2023-04-20T02:07:15;95106.00;;;-2.39;28.99
19208;BME280;9737;59.466;18.036;2023-04-20T02:09:43;95096.75;;;-2.41;29.08
19208;BME280;9737;59.466;18.036;2023-04-20T02:12:12;95109.75;;;-2.41;29.06
19208;BME280;9737;59.466;18.036;2023-04-20T02:14:41;95099.34;;;-2.41;29.07
19208;BME280;9737;59.466;18.036;2023-04-20T02:17:09;95077.56;;;-2.48;28.96
19208;BME280;9737;59.466;18.036;2023-04-20T02:19:37;95065.22;;;-2.55;29.53
19208;BME280;9737;59.466;18.036;2023-04-20T02:22:05;95064.06;;;-2.52;28.99
19208;BME280;9737;59.466;18.036;2023-04-20T02:24:33;95074.31;;;-2.51;29.22
19208;BME280;9737;59.466;18.036;2023-04-20T02:27:00;95067.31;;;-2.50;29.21
19208;BME280;9737;59.466;18.036;2023-04-20T02:29:29;95069.94;;;-2.50;29.16
19208;BME280;9737;59.466;18.036;2023-04-20T02:31:58;95065.06;;;-2.53;29.20
19208;BME280;9737;59.466;18.036;2023-04-20T02:34:26;95048.97;;;-2.57;29.19
19208;BME280;9737;59.466;18.036;2023-04-20T02:36:54;95038.56;;;-2.57;29.15
19208;BME280;9737;59.466;18.036;2023-04-20T02:39:21;95058.22;;;-2.54;29.28
19208;BME280;9737;59.466;18.036;2023-04-20T02:41:49;95059.84;;;-2.53;29.35
19208;BME280;9737;59.466;18.036;2023-04-20T02:44:17;95045.56;;;-2.57;29.36
19208;BME280;9737;59.466;18.036;2023-04-20T02:46:45;95034.50;;;-2.59;29.33
19208;BME280;9737;59.466;18.036;2023-04-20T02:49:14;95027.34;;;-2.65;29.52
19208;BME280;9737;59.466;18.036;2023-04-20T02:51:42;95029.44;;;-2.61;29.32
19208;BME280;9737;59.466;18.036;2023-04-20T02:54:10;95019.53;;;-2.65;29.22
19208;BME280;9737;59.466;18.036;2023-04-20T02:56:38;95001.66;;;-2.68;29.38
19208;BME280;9737;59.466;18.036;2023-04-20T02:59:06;95001.00;;;-2.70;29.56
19208;BME280;9737;59.466;18.036;2023-04-20T03:01:34;94995.81;;;-2.70;29.53
19208;BME280;9737;59.466;18.036;2023-04-20T03:04:03;94989.97;;;-2.72;29.53
19208;BME280;9737;59.466;18.036;2023-04-20T03:06:33;94991.59;;;-2.71;29.56
19208;BME280;9737;59.466;18.036;2023-04-20T03:09:06;94999.38;;;-2.71;29.59
19208;BME280;9737;59.466;18.036;2023-04-20T03:11:34;95001.81;;;-2.70;29.46
19208;BME280;9737;59.466;18.036;2023-04-20T03:14:03;95002.31;;;-2.66;29.63
19208;BME280;9737;59.466;18.036;2023-04-20T03:16:31;95012.72;;;-2.66;29.65
19208;BME280;9737;59.466;18.036;2023-04-20T03:18:59;95006.84;;;-2.68;29.72
19208;BME280;9737;59.466;18.036;2023-04-20T03:21:27;95003.28;;;-2.67;29.67
19208;BME280;9737;59.466;18.036;2023-04-20T03:23:56;95001.00;;;-2.70;29.78
19208;BME280;9737;59.466;18.036;2023-04-20T03:26:24;95010.09;;;-2.66;29.78
19208;BME280;9737;59.466;18.036;2023-04-20T03:28:52;95007.50;;;-2.66;29.72
19208;BME280;9737;59.466;18.036;2023-04-20T03:31:20;95001.50;;;-2.67;29.88
19208;BME280;9737;59.466;18.036;2023-04-20T03:33:48;95014.34;;;-2.65;29.81
19208;BME280;9737;59.466;18.036;2023-04-20T03:36:16;95022.78;;;-2.63;30.02
19208;BME280;9737;59.466;18.036;2023-04-20T03:38:44;95036.13;;;-2.58;29.94
19208;BME280;9737;59.466;18.036;2023-04-20T03:41:14;95058.22;;;-2.54;29.95
19208;BME280;9737;59.466;18.036;2023-04-20T03:43:42;95061.47;;;-2.52;29.98
19208;BME280;9737;59.466;18.036;2023-04-20T03:46:10;95058.22;;;-2.54;30.03
19208;BME280;9737;59.466;18.036;2023-04-20T03:48:38;95056.59;;;-2.55;29.79
19208;BME280;9737;59.466;18.036;2023-04-20T03:51:06;95063.09;;;-2.51;30.13
19208;BME280;9737;59.466;18.036;2023-04-20T03:53:34;95078.38;;;-2.48;30.22
19208;BME280;9737;59.466;18.036;2023-04-20T03:56:05;95085.84;;;-2.45;30.22
19208;BME280;9737;59.466;18.036;2023-04-20T03:58:34;95109.56;;;-2.40;30.30
19208;BME280;9737;59.466;18.036;2023-04-20T04:01:02;95118.69;;;-2.36;30.40
19208;BME280;9737;59.466;18.036;2023-04-20T04:03:32;95125.19;;;-2.32;30.30
19208;BME280;9737;59.466;18.036;2023-04-20T04:06:01;95148.28;;;-2.29;30.43
19208;BME280;9737;59.466;18.036;2023-04-20T04:08:29;95161.78;;;-2.25;30.34
19208;BME280;9737;59.466;18.036;2023-04-20T04:10:58;95181.13;;;-2.20;30.38
19208;BME280;9737;59.466;18.036;2023-04-20T04:13:26;95191.06;;;-2.15;30.54
19208;BME280;9737;59.466;18.036;2023-04-20T04:15:55;95223.09;;;-2.06;30.50
19208;BME280;9737;59.466;18.036;2023-04-20T04:18:23;95253.72;;;-2.00;30.84
19208;BME280;9737;59.466;18.036;2023-04-20T04:20:52;95285.94;;;-1.93;30.69
19208;BME280;9737;59.466;18.036;2023-04-20T04:23:19;95303.34;;;-1.85;30.57
19208;BME280;9737;59.466;18.036;2023-04-20T04:25:47;95323.50;;;-1.79;30.73
19208;BME280;9737;59.466;18.036;2023-04-20T04:28:15;95340.28;;;-1.74;30.79
19208;BME280;9737;59.466;18.036;2023-04-20T04:30:43;95378.41;;;-1.65;30.77
19208;BME280;9737;59.466;18.036;2023-04-20T04:33:12;95397.78;;;-1.59;30.81
19208;BME280;9737;59.466;18.036;2023-04-20T04:35:41;95426.44;;;-1.51;31.05
19208;BME280;9737;59.466;18.036;2023-04-20T04:38:10;95461.16;;;-1.42;30.85
19208;BME280;9737;59.466;18.036;2023-04-20T04:40:39;95489.84;;;-1.34;30.83
19208;BME280;9737;59.466;18.036;2023-04-20T04:43:10;95518.50;;;-1.26;31.13
19208;BME280;9737;59.466;18.036;2023-04-20T04:45:38;95539.69;;;-1.21;31.02
19208;BME280;9737;59.466;18.036;2023-04-20T04:48:06;95578.19;;;-1.07;31.27
19208;BME280;9737;59.466;18.036;2023-04-20T04:50:36;95627.44;;;-0.96;31.06
19208;BME280;9737;59.466;18.036;2023-04-20T04:53:04;95669.53;;;-0.82;31.40
19208;BME280;9737;59.466;18.036;2023-04-20T04:55:33;95718.81;;;-0.71;31.58
19208;BME280;9737;59.466;18.036;2023-04-20T04:58:01;95773.66;;;-0.55;31.55
19208;BME280;9737;59.466;18.036;2023-04-20T05:00:30;95831.13;;;-0.39;31.70
19208;BME280;9737;59.466;18.036;2023-04-20T05:02:58;95885.38;;;-0.24;31.75
19208;BME280;9737;59.466;18.036;2023-04-20T05:05:26;95937.66;;;-0.08;31.67
19208;BME280;9737;59.466;18.036;2023-04-20T05:07:55;96015.78;;;0.11;31.79
19208;BME280;9737;59.466;18.036;2023-04-20T05:10:23;96074.97;;;0.28;31.51
19208;BME280;9737;59.466;18.036;2023-04-20T05:12:51;96138.13;;;0.42;32.07
19208;BME280;9737;59.466;18.036;2023-04-20T05:15:19;96241.25;;;0.73;32.15
19208;BME280;9737;59.466;18.036;2023-04-20T05:17:47;96332.66;;;1.01;32.11
19208;BME280;9737;59.466;18.036;2023-04-20T05:20:16;96457.03;;;1.31;32.16
19208;BME280;9737;59.466;18.036;2023-04-20T05:22:44;96580.88;;;1.67;32.27
19208;BME280;9737;59.466;18.036;2023-04-20T05:25:13;96746.03;;;2.10;32.53
19208;BME280;9737;59.466;18.036;2023-04-20T05:27:42;96903.28;;;2.56;32.54
19208;BME280;9737;59.466;18.036;2023-04-20T05:30:10;97098.56;;;3.08;32.91
19208;BME280;9737;59.466;18.036;2023-04-20T05:32:47;97297.22;;;3.64;33.03
19208;BME280;9737;59.466;18.036;2023-04-20T05:35:18;97498.75;;;4.20;33.08
19208;BME280;9737;59.466;18.036;2023-04-20T05:37:47;97692.09;;;4.72;33.24
19208;BME280;9737;59.466;18.036;2023-04-20T05:40:16;97878.16;;;5.20;33.00
19208;BME280;9737;59.466;18.036;2023-04-20T05:42:44;98053.06;;;5.67;33.87
19208;BME280;9737;59.466;18.036;2023-04-20T05:45:12;98237.50;;;6.18;33.73
19208;BME280;9737;59.466;18.036;2023-04-20T05:47:40;98421.69;;;6.65;33.88
19208;BME280;9737;59.466;18.036;2023-04-20T05:50:08;98573.78;;;7.07;33.70
19208;BME280;9737;59.466;18.036;2023-04-20T05:52:36;98740.91;;;7.51;34.25
19208;BME280;9737;59.466;18.036;2023-04-20T05:55:05;98821.19;;;7.71;34.14
19208;BME280;9737;59.466;18.036;2023-04-20T05:57:34;98941.69;;;8.05;34.26
19208;BME280;9737;59.466;18.036;2023-04-20T06:00:09;99109.50;;;8.46;34.28
19208;BME280;9737;59.466;18.036;2023-04-20T06:02:38;99242.22;;;8.85;34.47
19208;BME280;9737;59.466;18.036;2023-04-20T06:05:07;99364.97;;;9.17;35.01
19208;BME280;9737;59.466;18.036;2023-04-20T06:07:36;99426.53;;;9.32;34.79
19208;BME280;9737;59.466;18.036;2023-04-20T06:10:05;99555.56;;;9.65;35.21
19208;BME280;9737;59.466;18.036;2023-04-20T06:12:35;99710.63;;;10.06;34.73
19208;BME280;9737;59.466;18.036;2023-04-20T06:15:04;99681.47;;;9.94;34.60
19208;BME280;9737;59.466;18.036;2023-04-20T06:17:34;99768.94;;;10.18;34.94
19208;BME280;9737;59.466;18.036;2023-04-20T06:20:04;99839.19;;;10.37;35.23
19208;BME280;9737;59.466;18.036;2023-04-20T06:22:32;99952.72;;;10.68;35.46
19208;BME280;9737;59.466;18.036;2023-04-20T06:25:00;100092.69;;;11.03;35.35
19208;BME280;9737;59.466;18.036;2023-04-20T06:27:28;100263.00;;;11.47;36.24
19208;BME280;9737;59.466;18.036;2023-04-20T06:29:57;100336.13;;;11.66;35.80
19208;BME280;9737;59.466;18.036;2023-04-20T06:32:25;100348.47;;;11.67;36.18
19208;BME280;9737;59.466;18.036;2023-04-20T06:34:53;100323.16;;;11.61;36.03
19208;BME280;9737;59.466;18.036;2023-04-20T06:37:21;100369.28;;;11.73;36.44
19208;BME280;9737;59.466;18.036;2023-04-20T06:39:52;100471.19;;;11.99;36.38
19208;BME280;9737;59.466;18.036;2023-04-20T06:42:19;100643.69;;;12.43;36.46
19208;BME280;9737;59.466;18.036;2023-04-20T06:44:47;100738.78;;;12.66;36.78
19208;BME280;9737;59.466;18.036;2023-04-20T06:47:17;100801.69;;;12.82;36.57
19208;BME280;9737;59.466;18.036;2023-04-20T06:49:45;100846.34;;;12.91;36.83
19208;BME280;9737;59.466;18.036;2023-04-20T06:52:13;100814.91;;;12.83;36.90
19208;BME280;9737;59.466;18.036;2023-04-20T06:54:40;100949.25;;;13.19;37.10
19208;BME280;9737;59.466;18.036;2023-04-20T06:57:08;101212.25;;;13.86;37.39
19208;BME280;9737;59.466;18.036;2023-04-20T06:59:37;101236.84;;;13.91;37.30
19208;BME280;9737;59.466;18.036;2023-04-20T07:02:04;101226.47;;;13.87;37.37
19208;BME280;9737;59.466;18.036;2023-04-20T07:04:34;101299.13;;;14.05;37.16
19208;BME280;9737;59.466;18.036;2023-04-20T07:07:02;101417.88;;;14.39;37.63
19208;BME280;9737;59.466;18.036;2023-04-20T07:09:30;101515.28;;;14.62;37.68
19208;BME280;9737;59.466;18.036;2023-04-20T07:11:58;101559.13;;;14.72;37.62
19208;BME280;9737;59.466;18.036;2023-04-20T07:14:26;101662.56;;;14.98;37.72
19208;BME280;9737;59.466;18.036;2023-04-20T07:16:54;101749.44;;;15.19;38.15
19208;BME280;9737;59.466;18.036;2023-04-20T07:19:22;101834.00;;;15.36;38.14
19208;BME280;9737;59.466;18.036;2023-04-20T07:21:52;101991.00;;;15.78;37.97
19208;BME280;9737;59.466;18.036;2023-04-20T07:24:19;101976.09;;;15.74;38.15
19208;BME280;9737;59.466;18.036;2023-04-20T07:26:47;102139.53;;;16.16;38.42
19208;BME280;9737;59.466;18.036;2023-04-20T07:29:16;102227.59;;;16.36;38.43
19208;BME280;9737;59.466;18.036;2023-04-20T07:31:44;102145.75;;;16.16;38.66
19208;BME280;9737;59.466;18.036;2023-04-20T07:34:12;102103.81;;;16.02;38.37
19208;BME280;9737;59.466;18.036;2023-04-20T07:36:40;102212.78;;;16.30;38.67
19208;BME280;9737;59.466;18.036;2023-04-20T07:39:09;102279.59;;;16.48;38.69
19208;BME280;9737;59.466;18.036;2023-04-20T07:41:37;102297.47;;;16.49;38.67
19208;BME280;9737;59.466;18.036;2023-04-20T07:44:05;102391.63;;;16.72;38.71
19208;BME280;9737;59.466;18.036;2023-04-20T07:46:33;102330.88;;;16.57;38.83
19208;BME280;9737;59.466;18.036;2023-04-20T07:49:00;102464.97;;;16.87;39.21
19208;BME280;9737;59.466;18.036;2023-04-20T07:51:28;102404.97;;;16.74;38.94
19208;BME280;9737;59.466;18.036;2023-04-20T07:53:58;102585.59;;;17.19;38.96
19208;BME280;9737;59.466;18.036;2023-04-20T07:56:27;102723.09;;;17.54;39.02
19208;BME280;9737;59.466;18.036;2023-04-20T07:58:55;102733.84;;;17.54;38.95
19208;BME280;9737;59.466;18.036;2023-04-20T08:01:23;102822.91;;;17.78;39.18
19208;BME280;9737;59.466;18.036;2023-04-20T08:03:52;102881.13;;;17.93;39.21
19208;BME280;9737;59.466;18.036;2023-04-20T08:06:21;102751.31;;;17.61;39.33
19208;BME280;9737;59.466;18.036;2023-04-20T08:08:49;102836.25;;;17.79;39.37
19208;BME280;9737;59.466;18.036;2023-04-20T08:11:19;102950.31;;;18.05;39.24
19208;BME280;9737;59.466;18.036;2023-04-20T08:13:48;103126.97;;;18.50;39.29
19208;BME280;9737;59.466;18.036;2023-04-20T08:16:16;103313.50;;;18.98;39.52
19208;BME280;9737;59.466;18.036;2023-04-20T08:18:44;103397.69;;;19.17;39.44
19208;BME280;9737;59.466;18.036;2023-04-20T08:21:12;103466.78;;;19.34;39.53
19208;BME280;9737;59.466;18.036;2023-04-20T08:23:40;103652.94;;;19.80;39.77
19208;BME280;9737;59.466;18.036;2023-04-20T08:26:13;103746.16;;;20.01;39.71
19208;BME280;9737;59.466;18.036;2023-04-20T08:28:41;103705.31;;;19.92;39.89
19208;BME280;9737;59.466;18.036;2023-04-20T08:31:11;103884.53;;;20.36;39.72
19208;BME280;9737;59.466;18.036;2023-04-20T08:33:40;104046.31;;;20.74;39.75
19208;BME280;9737;59.466;18.036;2023-04-20T08:36:08;104209.91;;;21.14;39.81
19208;BME280;9737;59.466;18.036;2023-04-20T08:38:37;104220.75;;;21.14;39.94
19208;BME280;9737;59.466;18.036;2023-04-20T08:41:05;104344.38;;;21.45;39.88
19208;BME280;9737;59.466;18.036;2023-04-20T08:43:33;104312.31;;;21.38;40.01
19208;BME280;9737;59.466;18.036;2023-04-20T08:46:01;104591.13;;;22.05;40.04
19208;BME280;9737;59.466;18.036;2023-04-20T08:48:33;104653.81;;;22.15;39.99
19208;BME280;9737;59.466;18.036;2023-04-20T08:51:02;104575.19;;;21.99;40.09
19208;BME280;9737;59.466;18.036;2023-04-20T08:53:31;104587.69;;;22.02;40.09
19208;BME280;9737;59.466;18.036;2023-04-20T08:55:59;104832.03;;;22.62;40.13
19208;BME280;9737;59.466;18.036;2023-04-20T08:58:29;104783.84;;;22.49;40.09
19208;BME280;9737;59.466;18.036;2023-04-20T09:01:02;104862.41;;;22.68;40.01
19208;BME280;9737;59.466;18.036;2023-04-20T09:03:33;105099.13;;;23.25;40.15
19208;BME280;9737;59.466;18.036;2023-04-20T09:06:01;104856.28;;;22.65;39.88
19208;BME280;9737;59.466;18.036;2023-04-20T09:08:36;105022.31;;;23.06;39.85
19208;BME280;9737;59.466;18.036;2023-04-20T09:11:04;104915.22;;;22.78;40.22
19208;BME280;9737;59.466;18.036;2023-04-20T09:13:32;104947.25;;;22.89;40.12
19208;BME280;9737;59.466;18.036;2023-04-20T09:16:10;104961.69;;;22.90;39.78
19208;BME280;9737;59.466;18.036;2023-04-20T09:18:50;105310.16;;;23.76;39.87
19208;BME280;9737;59.466;18.036;2023-04-20T09:21:18;105345.25;;;23.81;39.80
19208;BME280;9737;59.466;18.036;2023-04-20T09:23:55;105081.41;;;23.18;39.71
19208;BME280;9737;59.466;18.036;2023-04-20T09:26:23;105092.03;;;23.23;39.99
19208;BME280;9737;59.466;18.036;2023-04-20T09:28:51;105685.66;;;24.63;39.91
19208;BME280;9737;59.466;18.036;2023-04-20T09:31:19;105431.28;;;23.99;40.08
19208;BME280;9737;59.466;18.036;2023-04-20T09:33:59;105841.69;;;25.01;39.76
19208;BME280;9737;59.466;18.036;2023-04-20T09:36:34;106201.88;;;25.86;39.83
19208;BME280;9737;59.466;18.036;2023-04-20T09:39:08;106339.50;;;26.18;39.96
19208;BME280;9737;59.466;18.036;2023-04-20T09:41:37;106393.50;;;26.30;39.97
19208;BME280;9737;59.466;18.036;2023-04-20T09:44:06;106467.28;;;26.49;39.82
19208;BME280;9737;59.466;18.036;2023-04-20T09:46:35;106982.16;;;27.68;39.84
19208;BME280;9737;59.466;18.036;2023-04-20T09:49:06;107257.03;;;28.27;39.69
19208;BME280;9737;59.466;18.036;2023-04-20T09:51:36;106439.63;;;26.38;39.89
19208;BME280;9737;59.466;18.036;2023-04-20T09:54:05;106161.50;;;25.75;39.70
19208;BME280;9737;59.466;18.036;2023-04-20T09:56:34;106034.75;;;25.46;39.48
19208;BME280;9737;59.466;18.036;2023-04-20T09:59:02;105806.72;;;24.92;39.38
19208;BME280;9737;59.466;18.036;2023-04-20T10:01:32;105735.69;;;24.78;39.18
19208;BME280;9737;59.466;18.036;2023-04-20T10:04:04;105892.75;;;25.15;39.26
19208;BME280;9737;59.466;18.036;2023-04-20T10:06:35;105959.16;;;25.31;39.28
19208;BME280;9737;59.466;18.036;2023-04-20T10:09:05;105869.34;;;25.11;39.09
19208;BME280;9737;59.466;18.036;2023-04-20T10:11:35;105786.75;;;24.91;39.14
19208;BME280;9737;59.466;18.036;2023-04-20T10:14:19;105606.59;;;24.47;39.16
19208;BME280;9737;59.466;18.036;2023-04-20T10:16:58;105877.34;;;25.14;38.76
19208;BME280;9737;59.466;18.036;2023-04-20T10:19:38;106318.56;;;26.18;39.04
19208;BME280;9737;59.466;18.036;2023-04-20T10:22:08;106569.88;;;26.75;38.93
19208;BME280;9737;59.466;18.036;2023-04-20T10:24:37;106833.91;;;27.38;39.09
19208;BME280;9737;59.466;18.036;2023-04-20T10:27:15;107254.88;;;28.35;38.54
19208;BME280;9737;59.466;18.036;2023-04-20T10:29:44;106974.81;;;27.69;38.92
19208;BME280;9737;59.466;18.036;2023-04-20T10:32:23;106950.41;;;27.64;38.58
19208;BME280;9737;59.466;18.036;2023-04-20T10:35:02;106841.97;;;27.41;38.79
19208;BME280;9737;59.466;18.036;2023-04-20T10:37:32;107362.31;;;28.63;38.52
19208;BME280;9737;59.466;18.036;2023-04-20T10:40:00;107492.72;;;28.92;38.32
19208;BME280;9737;59.466;18.036;2023-04-20T10:42:40;107819.81;;;29.66;38.58
19208;BME280;9737;59.466;18.036;2023-04-20T10:45:09;107897.88;;;29.82;38.39
19208;BME280;9737;59.466;18.036;2023-04-20T10:47:37;107872.41;;;29.79;38.31
19208;BME280;9737;59.466;18.036;2023-04-20T10:50:08;107769.00;;;29.56;37.95
19208;BME280;9737;59.466;18.036;2023-04-20T10:52:39;108296.44;;;30.76;38.07
19208;BME280;9737;59.466;18.036;2023-04-20T10:55:17;108017.41;;;30.16;37.97
19208;BME280;9737;59.466;18.036;2023-04-20T10:57:46;107810.63;;;29.67;37.84
19208;BME280;9737;59.466;18.036;2023-04-20T11:00:15;107656.50;;;29.33;37.64
19208;BME280;9737;59.466;18.036;2023-04-20T11:02:48;107315.97;;;28.57;37.46
19208;BME280;9737;59.466;18.036;2023-04-20T11:05:16;107598.22;;;29.26;37.55
19208;BME280;9737;59.466;18.036;2023-04-20T11:07:52;108364.31;;;30.99;37.64
19208;BME280;9737;59.466;18.036;2023-04-20T11:10:22;108262.50;;;30.75;37.47
19208;BME280;9737;59.466;18.036;2023-04-20T11:12:50;108485.28;;;31.27;37.45
19208;BME280;9737;59.466;18.036;2023-04-20T11:15:18;108382.44;;;31.04;37.47
19208;BME280;9737;59.466;18.036;2023-04-20T11:18:05;108238.78;;;30.73;37.01
19208;BME280;9737;59.466;18.036;2023-04-20T11:20:33;108134.19;;;30.51;37.12
19208;BME280;9737;59.466;18.036;2023-04-20T11:23:03;108076.91;;;30.40;36.75
19208;BME280;9737;59.466;18.036;2023-04-20T11:25:32;108376.75;;;31.09;36.50
19208;BME280;9737;59.466;18.036;2023-04-20T11:28:07;108396.78;;;31.12;36.74
19208;BME280;9737;59.466;18.036;2023-04-20T11:30:38;108172.22;;;30.63;36.55
19208;BME280;9737;59.466;18.036;2023-04-20T11:33:07;108123.97;;;30.55;36.39
19208;BME280;9737;59.466;18.036;2023-04-20T11:35:35;108174.91;;;30.65;36.28
19208;BME280;9737;59.466;18.036;2023-04-20T11:38:05;108468.53;;;31.33;36.05
19208;BME280;9737;59.466;18.036;2023-04-20T11:40:34;108438.44;;;31.28;36.32
19208;BME280;9737;59.466;18.036;2023-04-20T11:43:02;107974.97;;;30.23;35.82
19208;BME280;9737;59.466;18.036;2023-04-20T11:45:31;107790.75;;;29.82;35.84
19208;BME280;9737;59.466;18.036;2023-04-20T11:48:03;107430.09;;;29.02;35.72
19208;BME280;9737;59.466;18.036;2023-04-20T11:50:31;107891.28;;;30.10;35.48
19208;BME280;9737;59.466;18.036;2023-04-20T11:52:59;107903.91;;;30.14;35.49
19208;BME280;9737;59.466;18.036;2023-04-20T11:55:29;108176.34;;;30.75;35.19
19208;BME280;9737;59.466;18.036;2023-04-20T11:57:57;108448.03;;;31.40;35.40
19208;BME280;9737;59.466;18.036;2023-04-20T12:00:24;108244.34;;;30.93;35.30
19208;BME280;9737;59.466;18.036;2023-04-20T12:02:52;108267.03;;;31.00;34.93
19208;BME280;9737;59.466;18.036;2023-04-20T12:05:21;108265.19;;;31.00;34.80
19208;BME280;9737;59.466;18.036;2023-04-20T12:07:49;107919.25;;;30.19;34.99
19208;BME280;9737;59.466;18.036;2023-04-20T12:10:20;108224.16;;;30.94;34.65
19208;BME280;9737;59.466;18.036;2023-04-20T12:12:49;108259.53;;;31.03;34.57
19208;BME280;9737;59.466;18.036;2023-04-20T12:15:17;107866.47;;;30.11;34.62
19208;BME280;9737;59.466;18.036;2023-04-20T12:17:45;107876.31;;;30.17;34.51
19208;BME280;9737;59.466;18.036;2023-04-20T12:20:13;107568.91;;;29.48;34.16
19208;BME280;9737;59.466;18.036;2023-04-20T12:22:41;107495.53;;;29.32;34.23
19208;BME280;9737;59.466;18.036;2023-04-20T12:25:09;107375.09;;;29.05;34.15
19208;BME280;9737;59.466;18.036;2023-04-20T12:27:37;107208.59;;;28.68;33.97
19208;BME280;9737;59.466;18.036;2023-04-20T12:30:08;107290.81;;;28.88;33.94
19208;BME280;9737;59.466;18.036;2023-04-20T12:32:36;107455.47;;;29.27;33.77
19208;BME280;9737;59.466;18.036;2023-04-20T12:35:04;108117.34;;;30.82;33.63
19208;BME280;9737;59.466;18.036;2023-04-20T12:37:33;108134.69;;;30.84;33.75
19208;BME280;9737;59.466;18.036;2023-04-20T12:40:01;108188.13;;;31.00;33.72
19208;BME280;9737;59.466;18.036;2023-04-20T12:42:31;108148.16;;;30.90;33.63
19208;BME280;9737;59.466;18.036;2023-04-20T12:44:59;108021.00;;;30.62;33.29
19208;BME280;9737;59.466;18.036;2023-04-20T12:47:28;107609.25;;;29.67;33.41
19208;BME280;9737;59.466;18.036;2023-04-20T12:49:56;107609.94;;;29.72;32.91
19208;BME280;9737;59.466;18.036;2023-04-20T12:52:24;107755.91;;;30.05;32.99
19208;BME280;9737;59.466;18.036;2023-04-20T12:54:52;107960.88;;;30.52;33.18
19208;BME280;9737;59.466;18.036;2023-04-20T12:57:20;107879.19;;;30.34;32.81
19208;BME280;9737;59.466;18.036;2023-04-20T12:59:48;108128.78;;;30.93;32.73
19208;BME280;9737;59.466;18.036;2023-04-20T13:02:16;108000.78;;;30.63;32.96
19208;BME280;9737;59.466;18.036;2023-04-20T13:04:46;107640.59;;;29.83;32.58